createdAt,value
2022-11-24T00:01:16.084Z,5.53
2022-11-24T00:03:44.879Z,6.03
2022-11-24T00:06:15.404Z,5.40
2022-11-24T00:08:46.105Z,5.10
2022-11-24T00:11:16.777Z,5.43
2022-11-24T00:13:44.522Z,5.73
2022-11-24T00:16:13.128Z,5.22
2022-11-24T00:18:42.103Z,5.95
2022-11-24T00:21:09.678Z,6.15
2022-11-24T00:23:37.858Z,5.65
2022-11-24T00:26:17.002Z,5.50
2022-11-24T00:28:45.945Z,5.22
2022-11-24T00:31:23.290Z,4.93
2022-11-24T00:33:52.998Z,5.00
2022-11-24T00:36:21.877Z,4.97
2022-11-24T00:38:53.198Z,5.50
2022-11-24T00:41:20.757Z,6.38
2022-11-24T00:43:48.380Z,4.30
2022-11-24T00:46:15.973Z,5.53
2022-11-24T00:48:43.711Z,5.13
2022-11-24T00:51:14.034Z,5.57
2022-11-24T00:53:41.951Z,5.10
2022-11-24T00:56:10.641Z,5.00
2022-11-24T00:58:38.323Z,4.72
2022-11-24T01:01:14.535Z,4.85
2022-11-24T01:03:42.823Z,4.70
2022-11-24T01:06:13.810Z,4.55
2022-11-24T01:08:42.783Z,4.95
2022-11-24T01:11:16.273Z,4.32
2022-11-24T01:13:45.991Z,4.25
2022-11-24T01:16:19.503Z,4.70
2022-11-24T01:18:47.785Z,4.70
2022-11-24T01:21:16.248Z,4.53
2022-11-24T01:23:44.056Z,4.47
2022-11-24T01:26:14.845Z,5.15
2022-11-24T01:28:47.067Z,4.10
2022-11-24T01:31:16.586Z,4.85
2022-11-24T01:33:44.331Z,5.30
2022-11-24T01:36:12.305Z,5.40
2022-11-24T01:38:39.946Z,5.50
2022-11-24T01:41:17.944Z,4.87
2022-11-24T01:43:46.901Z,4.78
2022-11-24T01:46:17.138Z,4.70
2022-11-24T01:48:50.827Z,4.78
2022-11-24T01:51:25.658Z,5.05
2022-11-24T01:53:59.377Z,4.93
2022-11-24T01:56:28.876Z,5.72
2022-11-24T01:58:59.558Z,4.95
2022-11-24T02:01:29.609Z,4.93
2022-11-24T02:03:58.125Z,4.78
2022-11-24T02:06:32.256Z,5.23
2022-11-24T02:09:32.902Z,6.07
2022-11-24T02:12:02.944Z,5.45
2022-11-24T02:14:30.949Z,6.32
2022-11-24T02:16:58.657Z,5.57
2022-11-24T02:19:38.476Z,5.53
2022-11-24T02:22:08.686Z,5.55
2022-11-24T02:24:53.502Z,4.80
2022-11-24T02:27:21.263Z,4.43
2022-11-24T02:29:50.007Z,4.38
2022-11-24T02:32:18.856Z,4.80
2022-11-24T02:34:46.275Z,4.57
2022-11-24T02:37:13.806Z,5.50
2022-11-24T02:39:41.320Z,5.20
2022-11-24T02:42:14.144Z,4.78
2022-11-24T02:44:49.067Z,5.33
2022-11-24T02:47:16.958Z,4.80
2022-11-24T02:49:44.449Z,4.20
2022-11-24T02:52:12.015Z,6.35
2022-11-24T02:54:39.586Z,5.38
2022-11-24T02:57:07.088Z,5.50
2022-11-24T02:59:34.483Z,5.50
2022-11-24T03:02:02.288Z,5.13
2022-11-24T03:04:29.897Z,5.40
2022-11-24T03:06:58.004Z,5.38
2022-11-24T03:09:25.631Z,4.73
2022-11-24T03:11:53.176Z,5.28
2022-11-24T03:14:20.703Z,4.60
2022-11-24T03:16:48.175Z,5.90
2022-11-24T03:19:15.751Z,5.28
2022-11-24T03:21:43.437Z,5.33
2022-11-24T03:24:11.005Z,5.05
2022-11-24T03:26:38.715Z,5.55
2022-11-24T03:29:06.341Z,6.00
2022-11-24T03:31:34.022Z,4.68
2022-11-24T03:34:01.591Z,5.90
2022-11-24T03:36:29.131Z,6.32
2022-11-24T03:38:56.793Z,6.18
2022-11-24T03:41:24.383Z,5.53
2022-11-24T03:43:52.102Z,5.30
2022-11-24T03:46:19.661Z,5.73
2022-11-24T03:48:47.195Z,6.32
2022-11-24T03:51:14.691Z,5.72
2022-11-24T03:53:42.263Z,6.25
2022-11-24T03:56:09.897Z,5.10
2022-11-24T03:58:37.495Z,6.00
2022-11-24T04:01:05.057Z,5.55
2022-11-24T04:03:32.565Z,6.30
2022-11-24T04:06:00.196Z,5.60
2022-11-24T04:08:27.709Z,5.97
2022-11-24T04:10:56.737Z,6.10
2022-11-24T04:13:25.961Z,5.90
2022-11-24T04:15:53.668Z,6.18
2022-11-24T04:18:21.606Z,6.10
2022-11-24T04:20:52.656Z,6.03
2022-11-24T04:23:20.556Z,6.50
2022-11-24T04:25:48.286Z,6.50
2022-11-24T04:28:15.813Z,6.38
2022-11-24T04:30:45.259Z,6.63
2022-11-24T04:33:13.698Z,6.57
2022-11-24T04:35:41.395Z,6.53
2022-11-24T04:38:08.918Z,7.05
2022-11-24T04:40:36.341Z,6.65
2022-11-24T04:43:04.016Z,7.30
2022-11-24T04:45:31.444Z,6.60
2022-11-24T04:47:59.001Z,6.80
2022-11-24T04:50:26.688Z,7.03
2022-11-24T04:52:54.320Z,6.07
2022-11-24T04:55:22.056Z,6.57
2022-11-24T04:57:49.633Z,7.00
2022-11-24T05:00:17.753Z,7.50
2022-11-24T05:02:44.991Z,7.25
2022-11-24T05:05:12.531Z,7.20
2022-11-24T05:07:40.254Z,7.15
2022-11-24T05:10:26.639Z,7.32
2022-11-24T05:12:57.850Z,7.43
2022-11-24T05:15:25.566Z,7.50
2022-11-24T05:17:53.292Z,8.50
2022-11-24T05:20:20.822Z,14.15
2022-11-24T05:22:48.412Z,11.25
2022-11-24T05:25:16.044Z,8.47
2022-11-24T05:27:43.503Z,9.18
2022-11-24T05:30:12.812Z,8.35
2022-11-24T05:32:40.533Z,7.50
2022-11-24T05:35:10.109Z,7.03
2022-11-24T05:37:38.119Z,6.50
2022-11-24T05:40:07.268Z,6.60
2022-11-24T05:42:46.298Z,9.02
2022-11-24T05:45:17.754Z,9.15
2022-11-24T05:47:45.800Z,7.72
2022-11-24T05:50:15.521Z,8.00
2022-11-24T05:52:43.562Z,8.90
2022-11-24T05:55:12.486Z,7.47
2022-11-24T05:57:40.083Z,6.65
2022-11-24T06:00:09.723Z,8.10
2022-11-24T06:02:37.434Z,7.07
2022-11-24T06:05:05.392Z,7.55
2022-11-24T06:07:32.953Z,8.27
2022-11-24T06:10:00.445Z,7.20
2022-11-24T06:12:27.872Z,7.38
2022-11-24T06:14:55.392Z,7.73
2022-11-24T06:17:22.761Z,6.50
2022-11-24T06:19:51.995Z,7.65
2022-11-24T06:22:19.709Z,6.60
2022-11-24T06:24:47.595Z,10.73
2022-11-24T06:27:15.184Z,8.13
2022-11-24T06:29:43.704Z,6.30
2022-11-24T06:32:11.457Z,6.47
2022-11-24T06:34:39.256Z,7.05
2022-11-24T06:37:07.133Z,6.18
2022-11-24T06:39:34.869Z,6.33
2022-11-24T06:42:02.632Z,6.35
2022-11-24T06:44:30.193Z,6.47
2022-11-24T06:46:57.773Z,6.93
2022-11-24T06:49:25.363Z,7.28
2022-11-24T06:51:55.563Z,7.20
2022-11-24T06:54:23.330Z,6.22
2022-11-24T06:56:50.832Z,6.50
2022-11-24T06:59:20.917Z,6.90
2022-11-24T07:01:48.674Z,6.57
2022-11-24T07:04:16.608Z,7.43
2022-11-24T07:06:44.878Z,7.00
2022-11-24T07:09:13.878Z,6.82
2022-11-24T07:11:41.798Z,8.57
2022-11-24T07:14:10.283Z,8.20
2022-11-24T07:16:38.047Z,7.67
2022-11-24T07:19:05.793Z,8.40
2022-11-24T07:21:33.594Z,8.10
2022-11-24T07:24:01.069Z,7.90
2022-11-24T07:26:28.713Z,7.80
2022-11-24T07:28:56.318Z,8.77
2022-11-24T07:31:27.196Z,11.05
2022-11-24T07:33:55.992Z,8.27
2022-11-24T07:36:24.468Z,7.85
2022-11-24T07:38:52.111Z,7.03
2022-11-24T07:41:21.829Z,7.83
2022-11-24T07:43:50.988Z,8.23
2022-11-24T07:46:20.031Z,8.90
2022-11-24T07:48:48.358Z,7.38
2022-11-24T07:51:16.375Z,8.45
2022-11-24T07:53:45.409Z,7.40
2022-11-24T07:56:13.840Z,8.73
2022-11-24T07:58:41.679Z,8.68
2022-11-24T08:01:17.218Z,8.07
2022-11-24T08:03:46.444Z,7.70
2022-11-24T08:06:38.691Z,9.53
2022-11-24T08:09:02.638Z,7.53
2022-11-24T08:11:31.828Z,9.00
2022-11-24T08:13:59.497Z,8.43
2022-11-24T08:16:27.119Z,8.27
2022-11-24T08:18:55.909Z,8.23
2022-11-24T08:21:23.947Z,7.53
2022-11-24T08:23:55.436Z,8.57
2022-11-24T08:26:25.352Z,7.80
2022-11-24T08:28:58.537Z,9.13
2022-11-24T08:31:33.629Z,8.70
2022-11-24T08:34:03.413Z,8.85
2022-11-24T08:36:31.113Z,8.73
2022-11-24T08:39:00.901Z,8.75
2022-11-24T08:41:29.559Z,9.25
2022-11-24T08:43:57.077Z,8.73
2022-11-24T08:46:25.150Z,8.13
2022-11-24T08:48:54.836Z,8.20
2022-11-24T08:51:24.674Z,7.22
2022-11-24T08:53:59.153Z,8.30
2022-11-24T08:56:28.762Z,7.90
2022-11-24T08:58:57.065Z,7.72
2022-11-24T09:01:25.273Z,8.55
2022-11-24T09:03:53.373Z,8.43
2022-11-24T09:06:25.256Z,9.27
2022-11-24T09:08:54.787Z,9.90
2022-11-24T09:11:22.834Z,10.82
2022-11-24T09:13:50.717Z,10.70
2022-11-24T09:16:29.471Z,9.07
2022-11-24T09:19:02.313Z,8.43
2022-11-24T09:21:31.562Z,10.10
2022-11-24T09:23:59.270Z,10.63
2022-11-24T09:26:35.716Z,9.02
2022-11-24T09:29:05.571Z,7.60
2022-11-24T09:31:35.948Z,8.70
2022-11-24T09:34:06.208Z,9.30
2022-11-24T09:36:33.932Z,8.13
2022-11-24T09:39:01.751Z,8.70
2022-11-24T09:42:07.184Z,8.25
2022-11-24T09:44:46.614Z,8.52
2022-11-24T09:47:23.124Z,7.97
2022-11-24T09:50:04.022Z,9.07
2022-11-24T09:53:03.923Z,9.00
2022-11-24T09:55:37.073Z,8.32
2022-11-24T09:58:30.733Z,8.80
2022-11-24T10:00:59.471Z,8.00
2022-11-24T10:03:38.793Z,8.60
2022-11-24T10:06:26.839Z,8.73
2022-11-24T10:08:57.193Z,10.57
2022-11-24T10:11:39.048Z,16.55
2022-11-24T10:14:28.395Z,16.23
2022-11-24T10:17:24.902Z,9.45
2022-11-24T10:20:06.789Z,8.25
2022-11-24T10:22:43.376Z,8.25
2022-11-24T10:25:21.712Z,9.15
2022-11-24T10:28:03.668Z,9.13
2022-11-24T10:30:31.735Z,9.70
2022-11-24T10:33:23.170Z,7.53
2022-11-24T10:35:58.324Z,8.13
2022-11-24T10:39:06.181Z,9.15
2022-11-24T10:41:42.739Z,8.27
2022-11-24T10:44:16.689Z,8.57
2022-11-24T10:46:44.484Z,8.98
2022-11-24T10:49:20.999Z,8.57
2022-11-24T10:52:05.459Z,8.85
2022-11-24T10:54:33.584Z,7.93
2022-11-24T10:57:01.290Z,8.70
2022-11-24T10:59:38.508Z,11.23
2022-11-24T11:02:29.958Z,9.93
2022-11-24T11:04:57.777Z,8.70
2022-11-24T11:07:27.256Z,9.60
2022-11-24T11:10:22.006Z,9.95
2022-11-24T11:12:50.167Z,10.07
2022-11-24T11:15:31.319Z,7.97
2022-11-24T11:18:02.083Z,8.35
2022-11-24T11:20:34.979Z,8.17
2022-11-24T11:23:14.889Z,8.68
2022-11-24T11:25:44.077Z,8.27
2022-11-24T11:28:19.012Z,9.65
2022-11-24T11:31:18.003Z,8.88
2022-11-24T11:34:07.267Z,8.73
2022-11-24T11:36:42.061Z,9.02
2022-11-24T11:39:36.794Z,7.50
2022-11-24T11:42:45.392Z,8.27
2022-11-24T11:45:23.403Z,7.78
2022-11-24T11:48:02.801Z,7.37
2022-11-24T11:51:21.587Z,8.63
2022-11-24T11:54:05.424Z,10.88
2022-11-24T11:56:46.715Z,8.88
2022-11-24T11:59:41.956Z,9.25
2022-11-24T12:03:01.206Z,8.03
2022-11-24T12:05:32.033Z,9.32
2022-11-24T12:08:10.951Z,10.93
2022-11-24T12:10:53.552Z,11.63
2022-11-24T12:13:39.672Z,8.32
2022-11-24T12:16:13.030Z,11.30
2022-11-24T12:19:04.911Z,12.05
2022-11-24T12:21:47.799Z,8.05
2022-11-24T12:24:27.149Z,9.35
2022-11-24T12:26:59.413Z,10.20
2022-11-24T12:29:33.470Z,10.90
2022-11-24T12:32:21.713Z,11.82
2022-11-24T12:35:03.422Z,7.55
2022-11-24T12:37:43.068Z,8.52
2022-11-24T12:40:30.728Z,9.65
2022-11-24T12:43:18.459Z,9.47
2022-11-24T12:45:45.882Z,8.77
2022-11-24T12:48:43.388Z,8.50
2022-11-24T12:51:20.575Z,8.60
2022-11-24T12:53:51.124Z,9.77
2022-11-24T12:56:26.320Z,9.07
2022-11-24T12:59:16.360Z,8.50
2022-11-24T13:02:02.449Z,9.73
2022-11-24T13:04:47.103Z,9.15
2022-11-24T13:07:40.178Z,11.02
2022-11-24T13:10:53.565Z,10.90
2022-11-24T13:13:17.585Z,12.07
2022-11-24T13:18:57.658Z,22.80
2022-11-24T13:21:32.588Z,12.50
2022-11-24T13:24:05.747Z,10.83
2022-11-24T13:26:35.354Z,10.50
2022-11-24T13:29:18.240Z,9.65
2022-11-24T13:31:52.797Z,8.32
2022-11-24T13:34:48.840Z,9.52
2022-11-24T13:37:34.857Z,8.50
2022-11-24T13:40:23.545Z,9.02
2022-11-24T13:43:06.422Z,10.65
2022-11-24T13:45:51.796Z,8.85
2022-11-24T13:48:22.984Z,9.88
2022-11-24T13:50:50.677Z,11.40
2022-11-24T13:53:33.983Z,9.43
2022-11-24T13:56:21.276Z,10.35
2022-11-24T13:58:50.823Z,8.48
2022-11-24T14:01:21.323Z,9.70
2022-11-24T14:04:32.597Z,12.17
2022-11-24T14:07:08.795Z,9.82
2022-11-24T14:09:46.152Z,8.05
2022-11-24T14:12:17.181Z,10.23
2022-11-24T14:14:46.854Z,11.55
2022-11-24T14:17:18.151Z,9.60
2022-11-24T14:19:48.805Z,9.25
2022-11-24T14:22:27.135Z,8.55
2022-11-24T14:25:02.502Z,7.80
2022-11-24T14:27:39.284Z,8.75
2022-11-24T14:30:11.144Z,7.60
2022-11-24T14:32:39.001Z,6.63
2022-11-24T14:35:27.186Z,7.15
2022-11-24T14:37:54.841Z,7.95
2022-11-24T14:40:54.223Z,8.00
2022-11-24T14:43:23.874Z,9.10
2022-11-24T14:46:09.672Z,6.95
2022-11-24T14:48:39.222Z,5.80
2022-11-24T14:51:17.622Z,6.28
2022-11-24T14:53:47.401Z,7.15
2022-11-24T14:56:25.412Z,7.20
2022-11-24T14:58:55.046Z,6.82
2022-11-24T15:01:29.429Z,7.10
2022-11-24T15:05:01.397Z,6.55
2022-11-24T15:07:27.565Z,6.43
2022-11-24T15:10:00.547Z,8.00
2022-11-24T15:12:29.667Z,6.00
2022-11-24T15:15:16.866Z,6.45
2022-11-24T15:17:59.549Z,7.22
2022-11-24T15:20:35.566Z,6.40
2022-11-24T15:23:28.826Z,7.00
2022-11-24T15:25:57.869Z,8.25
2022-11-24T15:28:26.952Z,8.80
2022-11-24T15:30:57.272Z,7.10
2022-11-24T15:33:25.385Z,8.85
2022-11-24T15:35:53.065Z,8.03
2022-11-24T15:38:21.186Z,7.75
2022-11-24T15:40:51.439Z,7.32
2022-11-24T15:43:42.504Z,7.40
2022-11-24T15:46:12.027Z,8.45
2022-11-24T15:48:39.834Z,8.60
2022-11-24T15:51:11.796Z,9.15
2022-11-24T15:53:43.337Z,8.52
2022-11-24T15:56:24.906Z,7.60
2022-11-24T15:58:55.125Z,7.75
2022-11-24T16:01:25.017Z,8.97
2022-11-24T16:03:52.694Z,7.55
2022-11-24T16:06:25.093Z,7.30
2022-11-24T16:08:54.404Z,8.70
2022-11-24T16:11:24.387Z,7.93
2022-11-24T16:13:53.930Z,9.50
2022-11-24T16:16:28.276Z,9.65
2022-11-24T16:18:56.846Z,10.75
2022-11-24T16:21:27.372Z,14.70
2022-11-24T16:23:56.523Z,17.45
2022-11-24T16:26:24.897Z,11.50
2022-11-24T16:28:55.472Z,12.20
2022-11-24T16:31:23.170Z,8.63
2022-11-24T16:33:51.440Z,7.70
2022-11-24T16:36:19.003Z,7.32
2022-11-24T16:38:46.676Z,7.67
2022-11-24T16:41:15.013Z,6.65
2022-11-24T16:43:43.093Z,8.07
2022-11-24T16:46:21.739Z,6.95
2022-11-24T16:48:54.174Z,7.72
2022-11-24T16:51:23.701Z,8.50
2022-11-24T16:54:00.110Z,8.57
2022-11-24T16:56:31.357Z,8.30
2022-11-24T16:58:58.793Z,12.90
2022-11-24T17:01:27.223Z,17.52
2022-11-24T17:03:55.927Z,9.73
2022-11-24T17:06:24.734Z,15.25
2022-11-24T17:08:56.724Z,13.20
2022-11-24T17:11:27.876Z,15.73
2022-11-24T17:13:58.879Z,12.35
2022-11-24T17:16:27.057Z,14.40
2022-11-24T17:18:54.909Z,12.43
2022-11-24T17:21:24.904Z,11.48
2022-11-24T17:23:57.629Z,10.07
2022-11-24T17:26:26.308Z,7.80
2022-11-24T17:28:56.281Z,7.23
2022-11-24T17:31:26.907Z,7.22
2022-11-24T17:33:57.209Z,7.47
2022-11-24T17:36:24.987Z,6.90
2022-11-24T17:38:54.333Z,7.38
2022-11-24T17:41:23.666Z,7.23
2022-11-24T17:43:57.306Z,7.60
2022-11-24T17:46:28.142Z,7.05
2022-11-24T17:48:56.502Z,8.15
2022-11-24T17:51:27.468Z,6.95
2022-11-24T17:53:58.194Z,7.70
2022-11-24T17:56:28.460Z,7.82
2022-11-24T17:59:09.094Z,7.35
2022-11-24T18:01:39.176Z,8.07
2022-11-24T18:04:07.636Z,7.53
2022-11-24T18:06:36.822Z,8.30
2022-11-24T18:09:07.711Z,8.27
2022-11-24T18:11:37.981Z,7.97
2022-11-24T18:14:05.875Z,7.88
2022-11-24T18:16:35.936Z,8.50
2022-11-24T18:19:12.328Z,10.33
2022-11-24T18:21:42.478Z,10.82
2022-11-24T18:24:14.008Z,9.25
2022-11-24T18:26:44.933Z,7.90
2022-11-24T18:29:14.844Z,8.30
2022-11-24T18:31:44.413Z,7.47
2022-11-24T18:34:12.939Z,8.88
2022-11-24T18:36:41.752Z,7.75
2022-11-24T18:39:10.284Z,8.27
2022-11-24T18:41:40.409Z,8.20
2022-11-24T18:44:09.690Z,9.27
2022-11-24T18:46:38.594Z,11.65
2022-11-24T18:49:14.704Z,9.52
2022-11-24T18:51:43.051Z,15.13
2022-11-24T18:54:11.956Z,13.50
2022-11-24T18:56:47.484Z,11.07
2022-11-24T18:59:18.708Z,10.07
2022-11-24T19:01:48.051Z,9.07
2022-11-24T19:04:16.716Z,8.38
2022-11-24T19:06:45.042Z,9.18
2022-11-24T19:09:17.119Z,8.57
2022-11-24T19:11:46.838Z,7.90
2022-11-24T19:14:17.429Z,7.95
2022-11-24T19:16:48.868Z,8.20
2022-11-24T19:19:17.675Z,7.65
2022-11-24T19:21:45.625Z,7.90
2022-11-24T19:24:13.713Z,7.25
2022-11-24T19:26:41.706Z,8.27
2022-11-24T19:29:10.747Z,7.90
2022-11-24T19:31:40.104Z,8.35
2022-11-24T19:34:08.806Z,7.33
2022-11-24T19:36:50.156Z,8.00
2022-11-24T19:39:18.108Z,8.13
2022-11-24T19:41:46.145Z,13.75
2022-11-24T19:44:14.505Z,12.02
2022-11-24T19:46:46.594Z,8.80
2022-11-24T19:49:14.504Z,11.73
2022-11-24T19:51:42.238Z,9.38
2022-11-24T19:54:14.702Z,9.48
2022-11-24T19:56:43.794Z,8.65
2022-11-24T19:59:16.528Z,8.00
2022-11-24T20:01:44.638Z,7.55
2022-11-24T20:04:15.323Z,7.72
2022-11-24T20:06:45.957Z,7.40
2022-11-24T20:09:16.271Z,8.07
2022-11-24T20:11:45.068Z,8.10
2022-11-24T20:14:14.592Z,7.32
2022-11-24T20:16:42.692Z,8.40
2022-11-24T20:19:15.704Z,7.22
2022-11-24T20:21:46.592Z,6.97
2022-11-24T20:24:25.260Z,6.90
2022-11-24T20:26:56.830Z,7.28
2022-11-24T20:29:26.179Z,7.32
2022-11-24T20:31:56.320Z,7.45
2022-11-24T20:34:24.864Z,6.70
2022-11-24T20:36:53.308Z,7.27
2022-11-24T20:39:25.664Z,7.43
2022-11-24T20:41:54.493Z,7.03
2022-11-24T20:44:23.107Z,7.80
2022-11-24T20:46:51.029Z,7.72
2022-11-24T20:49:22.304Z,7.50
2022-11-24T20:51:54.655Z,7.78
2022-11-24T20:54:22.440Z,7.75
2022-11-24T20:56:51.672Z,6.97
2022-11-24T20:59:22.986Z,8.00
2022-11-24T21:01:52.161Z,7.13
2022-11-24T21:04:22.931Z,7.70
2022-11-24T21:06:51.040Z,9.10
2022-11-24T21:09:19.372Z,7.53
2022-11-24T21:11:47.102Z,8.18
2022-11-24T21:14:14.883Z,10.40
2022-11-24T21:16:43.099Z,7.90
2022-11-24T21:19:14.051Z,8.13
2022-11-24T21:21:43.171Z,6.80
2022-11-24T21:24:18.802Z,8.15
2022-11-24T21:26:52.312Z,7.87
2022-11-24T21:29:22.720Z,6.57
2022-11-24T21:31:50.318Z,7.82
2022-11-24T21:34:19.330Z,7.45
2022-11-24T21:36:47.673Z,6.28
2022-11-24T21:39:15.957Z,7.07
2022-11-24T21:41:44.086Z,10.23
2022-11-24T21:44:13.434Z,8.38
2022-11-24T21:46:46.084Z,7.30
2022-11-24T21:49:17.140Z,8.05
2022-11-24T21:51:44.461Z,6.67
2022-11-24T21:54:11.814Z,6.90
2022-11-24T21:56:39.398Z,6.88
2022-11-24T21:59:06.774Z,7.47
2022-11-24T22:01:34.337Z,6.30
2022-11-24T22:04:01.961Z,6.67
2022-11-24T22:06:29.391Z,6.78
2022-11-24T22:08:56.809Z,6.78
2022-11-24T22:11:25.639Z,6.68
2022-11-24T22:13:53.547Z,6.30
2022-11-24T22:16:23.606Z,6.13
2022-11-24T22:18:51.385Z,6.72
2022-11-24T22:21:23.080Z,6.18
2022-11-24T22:23:53.779Z,7.10
2022-11-24T22:26:23.008Z,6.38
2022-11-24T22:28:51.092Z,5.80
2022-11-24T22:31:21.207Z,6.18
2022-11-24T22:33:49.661Z,6.13
2022-11-24T22:36:19.142Z,7.10
2022-11-24T22:38:46.642Z,6.07
2022-11-24T22:41:16.834Z,6.40
2022-11-24T22:43:45.434Z,6.32
2022-11-24T22:46:19.137Z,6.10
2022-11-24T22:48:48.880Z,5.80
2022-11-24T22:51:31.603Z,5.72
2022-11-24T22:54:04.250Z,6.40
2022-11-24T22:56:33.117Z,6.38
2022-11-24T22:59:02.046Z,5.95
2022-11-24T23:01:30.900Z,5.70
2022-11-24T23:03:58.573Z,6.07
2022-11-24T23:06:27.986Z,6.17
2022-11-24T23:08:56.168Z,6.55
2022-11-24T23:11:32.662Z,6.03
2022-11-24T23:14:04.751Z,6.43
2022-11-24T23:16:32.363Z,6.82
2022-11-24T23:19:00.103Z,5.73
2022-11-24T23:21:32.533Z,5.68
2022-11-24T23:24:02.563Z,5.85
2022-11-24T23:26:33.835Z,5.20
2022-11-24T23:29:01.618Z,5.78
2022-11-24T23:31:29.313Z,5.83
2022-11-24T23:34:01.948Z,5.43
2022-11-24T23:36:31.019Z,6.55
2022-11-24T23:39:14.750Z,5.97
2022-11-24T23:41:42.390Z,5.75
2022-11-24T23:44:10.038Z,6.20
2022-11-24T23:46:37.592Z,5.70
2022-11-24T23:49:05.201Z,6.80
2022-11-24T23:51:34.085Z,5.65
2022-11-24T23:54:01.784Z,6.38
2022-11-24T23:56:33.737Z,5.60
2022-11-24T23:59:03.180Z,6.05
